sensor_id;sensor_type;location;lat;lon;timestamp;P1;durP1;ratioP1;P2;durP2;ratioP2
22983;SDS011;11658;48.908;9.140;2024-03-08T05:01:42;13.63;;;11.17;;
22983;SDS011;11658;48.908;9.140;2024-03-08T05:04:08;16.20;;;11.93;;
22983;SDS011;11658;48.908;9.140;2024-03-08T05:06:34;15.17;;;11.63;;
22983;SDS011;11658;48.908;9.140;2024-03-08T05:08:59;13.93;;;10.47;;
22983;SDS011;11658;48.908;9.140;2024-03-08T05:11:25;15.27;;;10.93;;
22983;SDS011;11658;48.908;9.140;2024-03-08T05:13:50;17.67;;;11.73;;
22983;SDS011;11658;48.908;9.140;2024-03-08T05:16:16;15.27;;;11.63;;
22983;SDS011;11658;48.908;9.140;2024-03-08T05:18:41;16.03;;;11.40;;
22983;SDS011;11658;48.908;9.140;2024-03-08T05:21:07;14.87;;;10.67;;
22983;SDS011;11658;48.908;9.140;2024-03-08T05:23:34;15.60;;;10.90;;
22983;SDS011;11658;48.908;9.140;2024-03-08T05:26:00;15.37;;;10.83;;
22983;SDS011;11658;48.908;9.140;2024-03-08T05:28:26;16.60;;;11.57;;
22983;SDS011;11658;48.908;9.140;2024-03-08T05:30:51;14.57;;;11.80;;
22983;SDS011;11658;48.908;9.140;2024-03-08T05:33:17;15.67;;;11.23;;
22983;SDS011;11658;48.908;9.140;2024-03-08T05:35:44;17.13;;;14.10;;
22983;SDS011;11658;48.908;9.140;2024-03-08T05:38:10;14.93;;;11.50;;
22983;SDS011;11658;48.908;9.140;2024-03-08T05:40:38;15.07;;;11.40;;
22983;SDS011;11658;48.908;9.140;2024-03-08T05:43:04;16.40;;;11.67;;
22983;SDS011;11658;48.908;9.140;2024-03-08T05:45:30;15.00;;;11.10;;
22983;SDS011;11658;48.908;9.140;2024-03-08T05:47:56;15.73;;;11.60;;
22983;SDS011;11658;48.908;9.140;2024-03-08T05:50:21;15.33;;;11.33;;
22983;SDS011;11658;48.908;9.140;2024-03-08T05:52:47;17.40;;;11.70;;
22983;SDS011;11658;48.908;9.140;2024-03-08T05:55:13;15.67;;;12.43;;
22983;SDS011;11658;48.908;9.140;2024-03-08T05:57:39;16.37;;;12.13;;
22983;SDS011;11658;48.908;9.140;2024-03-08T06:00:07;18.00;;;12.53;;
22983;SDS011;11658;48.908;9.140;2024-03-08T06:02:36;15.63;;;11.87;;
22983;SDS011;11658;48.908;9.140;2024-03-08T06:05:06;17.57;;;11.70;;
22983;SDS011;11658;48.908;9.140;2024-03-08T06:07:36;15.90;;;11.63;;
22983;SDS011;11658;48.908;9.140;2024-03-08T06:10:06;15.40;;;11.50;;
22983;SDS011;11658;48.908;9.140;2024-03-08T06:12:35;16.83;;;11.30;;
22983;SDS011;11658;48.908;9.140;2024-03-08T06:15:05;17.37;;;11.70;;
22983;SDS011;11658;48.908;9.140;2024-03-08T06:17:31;17.10;;;12.60;;
22983;SDS011;11658;48.908;9.140;2024-03-08T06:19:57;16.80;;;11.67;;
22983;SDS011;11658;48.908;9.140;2024-03-08T06:22:23;17.43;;;12.13;;
22983;SDS011;11658;48.908;9.140;2024-03-08T06:24:49;16.67;;;11.93;;
22983;SDS011;11658;48.908;9.140;2024-03-08T06:27:16;15.93;;;11.73;;
22983;SDS011;11658;48.908;9.140;2024-03-08T06:29:42;16.37;;;11.20;;
22983;SDS011;11658;48.908;9.140;2024-03-08T06:32:08;15.50;;;11.97;;
22983;SDS011;11658;48.908;9.140;2024-03-08T06:34:33;16.13;;;11.93;;
22983;SDS011;11658;48.908;9.140;2024-03-08T06:37:02;17.63;;;12.07;;
22983;SDS011;11658;48.908;9.140;2024-03-08T06:39:27;16.83;;;11.87;;
22983;SDS011;11658;48.908;9.140;2024-03-08T06:41:56;17.63;;;11.70;;
22983;SDS011;11658;48.908;9.140;2024-03-08T06:44:22;16.17;;;12.77;;
22983;SDS011;11658;48.908;9.140;2024-03-08T06:46:47;18.03;;;12.13;;
22983;SDS011;11658;48.908;9.140;2024-03-08T06:49:13;14.50;;;11.57;;
22983;SDS011;11658;48.908;9.140;2024-03-08T06:51:40;20.57;;;12.93;;
22983;SDS011;11658;48.908;9.140;2024-03-08T06:54:06;15.33;;;12.63;;
22983;SDS011;11658;48.908;9.140;2024-03-08T06:56:33;19.20;;;13.53;;
22983;SDS011;11658;48.908;9.140;2024-03-08T06:58:59;17.63;;;12.40;;
22983;SDS011;11658;48.908;9.140;2024-03-08T07:01:28;15.00;;;11.73;;
22983;SDS011;11658;48.908;9.140;2024-03-08T07:03:57;17.37;;;12.93;;
22983;SDS011;11658;48.908;9.140;2024-03-08T07:06:23;16.03;;;12.17;;
22983;SDS011;11658;48.908;9.140;2024-03-08T07:08:48;14.07;;;11.37;;
22983;SDS011;11658;48.908;9.140;2024-03-08T07:11:14;17.10;;;12.23;;
22983;SDS011;11658;48.908;9.140;2024-03-08T07:13:44;14.97;;;12.60;;
22983;SDS011;11658;48.908;9.140;2024-03-08T07:16:10;16.53;;;12.33;;
22983;SDS011;11658;48.908;9.140;2024-03-08T07:18:37;16.80;;;11.80;;
22983;SDS011;11658;48.908;9.140;2024-03-08T07:21:08;15.50;;;12.17;;
22983;SDS011;11658;48.908;9.140;2024-03-08T07:23:36;15.40;;;12.73;;
22983;SDS011;11658;48.908;9.140;2024-03-08T07:26:15;16.77;;;13.27;;
22983;SDS011;11658;48.908;9.140;2024-03-08T07:28:41;18.13;;;12.97;;
22983;SDS011;11658;48.908;9.140;2024-03-08T07:31:07;18.47;;;12.67;;
22983;SDS011;11658;48.908;9.140;2024-03-08T07:33:35;14.10;;;11.57;;
22983;SDS011;11658;48.908;9.140;2024-03-08T07:36:00;18.90;;;12.40;;
22983;SDS011;11658;48.908;9.140;2024-03-08T07:38:26;14.70;;;11.70;;
22983;SDS011;11658;48.908;9.140;2024-03-08T07:40:51;15.63;;;12.83;;
22983;SDS011;11658;48.908;9.140;2024-03-08T07:43:17;15.03;;;12.10;;
22983;SDS011;11658;48.908;9.140;2024-03-08T07:45:43;15.20;;;11.93;;
22983;SDS011;11658;48.908;9.140;2024-03-08T07:48:08;14.90;;;12.37;;
22983;SDS011;11658;48.908;9.140;2024-03-08T07:50:38;13.73;;;10.57;;
22983;SDS011;11658;48.908;9.140;2024-03-08T07:53:04;16.13;;;12.03;;
22983;SDS011;11658;48.908;9.140;2024-03-08T07:55:31;18.70;;;12.63;;
22983;SDS011;11658;48.908;9.140;2024-03-08T07:57:58;16.13;;;12.93;;
22983;SDS011;11658;48.908;9.140;2024-03-08T08:00:24;13.97;;;11.73;;
22983;SDS011;11658;48.908;9.140;2024-03-08T08:02:52;15.90;;;11.53;;
22983;SDS011;11658;48.908;9.140;2024-03-08T08:05:18;13.83;;;11.70;;
22983;SDS011;11658;48.908;9.140;2024-03-08T08:07:44;16.30;;;11.30;;
22983;SDS011;11658;48.908;9.140;2024-03-08T08:10:11;15.90;;;12.00;;
22983;SDS011;11658;48.908;9.140;2024-03-08T08:12:46;15.80;;;11.57;;
22983;SDS011;11658;48.908;9.140;2024-03-08T08:15:13;15.23;;;12.20;;
22983;SDS011;11658;48.908;9.140;2024-03-08T08:17:40;16.10;;;12.13;;
22983;SDS011;11658;48.908;9.140;2024-03-08T08:20:10;13.23;;;11.10;;
22983;SDS011;11658;48.908;9.140;2024-03-08T08:22:38;16.30;;;11.90;;
22983;SDS011;11658;48.908;9.140;2024-03-08T08:25:08;16.47;;;11.70;;
22983;SDS011;11658;48.908;9.140;2024-03-08T08:27:34;13.93;;;11.57;;
22983;SDS011;11658;48.908;9.140;2024-03-08T08:30:01;15.40;;;11.60;;
22983;SDS011;11658;48.908;9.140;2024-03-08T08:32:27;14.10;;;11.40;;
22983;SDS011;11658;48.908;9.140;2024-03-08T08:34:53;14.60;;;11.50;;
22983;SDS011;11658;48.908;9.140;2024-03-08T08:37:19;14.43;;;11.83;;
22983;SDS011;11658;48.908;9.140;2024-03-08T08:39:44;14.37;;;10.70;;
22983;SDS011;11658;48.908;9.140;2024-03-08T08:42:10;14.67;;;10.93;;
22983;SDS011;11658;48.908;9.140;2024-03-08T08:44:36;15.07;;;11.47;;
22983;SDS011;11658;48.908;9.140;2024-03-08T08:47:01;14.30;;;11.50;;
22983;SDS011;11658;48.908;9.140;2024-03-08T08:49:28;15.23;;;11.67;;
22983;SDS011;11658;48.908;9.140;2024-03-08T08:51:55;14.57;;;11.50;;
22983;SDS011;11658;48.908;9.140;2024-03-08T08:54:23;14.00;;;11.47;;
22983;SDS011;11658;48.908;9.140;2024-03-08T08:56:50;13.93;;;11.13;;
22983;SDS011;11658;48.908;9.140;2024-03-08T08:59:16;13.40;;;11.00;;
22983;SDS011;11658;48.908;9.140;2024-03-08T09:01:44;13.97;;;11.23;;
22983;SDS011;11658;48.908;9.140;2024-03-08T09:04:12;15.97;;;11.30;;
22983;SDS011;11658;48.908;9.140;2024-03-08T09:06:38;12.93;;;11.03;;
22983;SDS011;11658;48.908;9.140;2024-03-08T09:09:06;14.10;;;11.30;;
22983;SDS011;11658;48.908;9.140;2024-03-08T09:11:34;14.97;;;10.97;;
22983;SDS011;11658;48.908;9.140;2024-03-08T09:13:59;14.33;;;11.20;;
22983;SDS011;11658;48.908;9.140;2024-03-08T09:16:27;15.37;;;11.90;;
22983;SDS011;11658;48.908;9.140;2024-03-08T09:18:52;14.73;;;11.73;;
22983;SDS011;11658;48.908;9.140;2024-03-08T09:21:18;14.97;;;11.47;;
22983;SDS011;11658;48.908;9.140;2024-03-08T09:23:43;14.13;;;11.27;;
22983;SDS011;11658;48.908;9.140;2024-03-08T09:26:10;14.33;;;10.90;;
22983;SDS011;11658;48.908;9.140;2024-03-08T09:28:37;13.40;;;10.60;;
22983;SDS011;11658;48.908;9.140;2024-03-08T09:31:03;16.43;;;10.33;;
22983;SDS011;11658;48.908;9.140;2024-03-08T09:33:30;14.10;;;10.67;;
22983;SDS011;11658;48.908;9.140;2024-03-08T09:35:56;14.47;;;11.60;;
22983;SDS011;11658;48.908;9.140;2024-03-08T09:38:25;17.47;;;11.40;;
22983;SDS011;11658;48.908;9.140;2024-03-08T09:40:51;14.30;;;10.77;;
22983;SDS011;11658;48.908;9.140;2024-03-08T09:43:18;12.57;;;11.17;;
22983;SDS011;11658;48.908;9.140;2024-03-08T09:45:43;15.20;;;10.97;;
22983;SDS011;11658;48.908;9.140;2024-03-08T09:48:14;13.53;;;10.53;;
22983;SDS011;11658;48.908;9.140;2024-03-08T09:50:42;14.33;;;11.10;;
22983;SDS011;11658;48.908;9.140;2024-03-08T09:53:08;14.70;;;11.10;;
22983;SDS011;11658;48.908;9.140;2024-03-08T09:55:37;14.80;;;11.00;;
22983;SDS011;11658;48.908;9.140;2024-03-08T09:58:07;14.73;;;11.60;;
22983;SDS011;11658;48.908;9.140;2024-03-08T10:00:53;13.37;;;10.87;;
22983;SDS011;11658;48.908;9.140;2024-03-08T10:03:19;14.23;;;10.57;;
22983;SDS011;11658;48.908;9.140;2024-03-08T10:05:45;14.40;;;10.83;;
22983;SDS011;11658;48.908;9.140;2024-03-08T10:08:11;14.40;;;10.77;;
22983;SDS011;11658;48.908;9.140;2024-03-08T10:10:38;14.43;;;11.13;;
22983;SDS011;11658;48.908;9.140;2024-03-08T10:13:06;13.80;;;10.70;;
22983;SDS011;11658;48.908;9.140;2024-03-08T10:15:33;15.47;;;10.87;;
22983;SDS011;11658;48.908;9.140;2024-03-08T10:17:58;14.13;;;10.30;;
22983;SDS011;11658;48.908;9.140;2024-03-08T10:20:24;13.03;;;10.67;;
22983;SDS011;11658;48.908;9.140;2024-03-08T10:22:51;13.13;;;10.63;;
22983;SDS011;11658;48.908;9.140;2024-03-08T10:25:18;15.20;;;10.63;;
22983;SDS011;11658;48.908;9.140;2024-03-08T10:27:44;17.37;;;11.33;;
22983;SDS011;11658;48.908;9.140;2024-03-08T10:30:10;20.00;;;11.80;;
22983;SDS011;11658;48.908;9.140;2024-03-08T10:32:39;15.60;;;11.47;;
22983;SDS011;11658;48.908;9.140;2024-03-08T10:35:06;13.50;;;10.63;;
22983;SDS011;11658;48.908;9.140;2024-03-08T10:37:33;15.83;;;10.80;;
22983;SDS011;11658;48.908;9.140;2024-03-08T10:40:08;15.93;;;11.87;;
22983;SDS011;11658;48.908;9.140;2024-03-08T10:42:44;13.97;;;11.37;;
22983;SDS011;11658;48.908;9.140;2024-03-08T10:45:18;14.07;;;11.20;;
22983;SDS011;11658;48.908;9.140;2024-03-08T10:48:04;12.37;;;10.50;;
22983;SDS011;11658;48.908;9.140;2024-03-08T10:50:48;14.47;;;11.03;;
22983;SDS011;11658;48.908;9.140;2024-03-08T10:53:15;13.37;;;10.80;;
22983;SDS011;11658;48.908;9.140;2024-03-08T10:55:43;15.60;;;10.90;;
22983;SDS011;11658;48.908;9.140;2024-03-08T10:58:10;13.27;;;10.50;;
22983;SDS011;11658;48.908;9.140;2024-03-08T11:00:35;14.17;;;10.87;;
22983;SDS011;11658;48.908;9.140;2024-03-08T11:03:02;15.00;;;11.00;;
22983;SDS011;11658;48.908;9.140;2024-03-08T11:05:32;13.57;;;10.67;;
22983;SDS011;11658;48.908;9.140;2024-03-08T11:08:19;15.73;;;11.10;;
22983;SDS011;11658;48.908;9.140;2024-03-08T11:10:49;14.27;;;11.10;;
22983;SDS011;11658;48.908;9.140;2024-03-08T11:13:42;15.17;;;10.90;;
22983;SDS011;11658;48.908;9.140;2024-03-08T11:16:09;14.97;;;11.10;;
22983;SDS011;11658;48.908;9.140;2024-03-08T11:18:36;14.43;;;10.63;;
22983;SDS011;11658;48.908;9.140;2024-03-08T11:21:03;15.50;;;10.67;;
22983;SDS011;11658;48.908;9.140;2024-03-08T11:23:38;14.13;;;10.87;;
22983;SDS011;11658;48.908;9.140;2024-03-08T11:26:17;14.60;;;11.33;;
22983;SDS011;11658;48.908;9.140;2024-03-08T11:28:49;15.37;;;11.37;;
22983;SDS011;11658;48.908;9.140;2024-03-08T11:33:46;13.97;;;11.13;;
22983;SDS011;11658;48.908;9.140;2024-03-08T11:36:20;15.43;;;11.90;;
22983;SDS011;11658;48.908;9.140;2024-03-08T11:38:47;14.87;;;11.43;;
22983;SDS011;11658;48.908;9.140;2024-03-08T11:41:14;14.97;;;11.73;;
22983;SDS011;11658;48.908;9.140;2024-03-08T11:43:43;15.70;;;11.50;;
22983;SDS011;11658;48.908;9.140;2024-03-08T11:46:09;13.07;;;10.63;;
22983;SDS011;11658;48.908;9.140;2024-03-08T11:48:37;13.77;;;11.37;;
22983;SDS011;11658;48.908;9.140;2024-03-08T11:51:03;16.07;;;11.10;;
22983;SDS011;11658;48.908;9.140;2024-03-08T11:53:30;17.73;;;11.43;;
22983;SDS011;11658;48.908;9.140;2024-03-08T11:56:05;15.10;;;12.20;;
22983;SDS011;11658;48.908;9.140;2024-03-08T11:58:31;15.43;;;12.33;;
22983;SDS011;11658;48.908;9.140;2024-03-08T12:01:07;19.57;;;12.63;;
22983;SDS011;11658;48.908;9.140;2024-03-08T12:03:37;21.00;;;12.93;;
22983;SDS011;11658;48.908;9.140;2024-03-08T12:06:03;14.80;;;11.40;;
22983;SDS011;11658;48.908;9.140;2024-03-08T12:08:32;20.80;;;12.87;;
22983;SDS011;11658;48.908;9.140;2024-03-08T12:10:58;15.70;;;11.73;;
22983;SDS011;11658;48.908;9.140;2024-03-08T12:13:27;16.70;;;12.20;;
22983;SDS011;11658;48.908;9.140;2024-03-08T12:15:56;13.70;;;11.07;;
22983;SDS011;11658;48.908;9.140;2024-03-08T12:18:24;15.67;;;11.70;;
22983;SDS011;11658;48.908;9.140;2024-03-08T12:20:51;15.57;;;11.40;;
22983;SDS011;11658;48.908;9.140;2024-03-08T12:23:28;15.77;;;12.07;;
22983;SDS011;11658;48.908;9.140;2024-03-08T12:25:54;17.80;;;11.80;;
22983;SDS011;11658;48.908;9.140;2024-03-08T12:28:19;16.40;;;11.67;;
22983;SDS011;11658;48.908;9.140;2024-03-08T12:30:50;15.17;;;11.87;;
22983;SDS011;11658;48.908;9.140;2024-03-08T12:33:19;20.17;;;12.40;;
22983;SDS011;11658;48.908;9.140;2024-03-08T12:35:51;18.20;;;11.97;;
22983;SDS011;11658;48.908;9.140;2024-03-08T12:38:23;17.77;;;11.70;;
22983;SDS011;11658;48.908;9.140;2024-03-08T12:40:57;17.40;;;12.33;;
22983;SDS011;11658;48.908;9.140;2024-03-08T12:43:23;14.77;;;11.53;;
22983;SDS011;11658;48.908;9.140;2024-03-08T12:45:49;15.73;;;12.33;;
22983;SDS011;11658;48.908;9.140;2024-03-08T12:48:15;14.37;;;11.50;;
22983;SDS011;11658;48.908;9.140;2024-03-08T12:50:41;16.90;;;12.27;;
22983;SDS011;11658;48.908;9.140;2024-03-08T12:53:10;14.13;;;11.40;;
22983;SDS011;11658;48.908;9.140;2024-03-08T12:55:36;15.50;;;11.77;;
22983;SDS011;11658;48.908;9.140;2024-03-08T12:58:01;16.10;;;12.00;;
22983;SDS011;11658;48.908;9.140;2024-03-08T13:00:28;15.43;;;11.67;;
22983;SDS011;11658;48.908;9.140;2024-03-08T13:02:53;17.50;;;12.27;;
22983;SDS011;11658;48.908;9.140;2024-03-08T13:05:20;18.87;;;12.37;;
22983;SDS011;11658;48.908;9.140;2024-03-08T13:07:46;19.43;;;11.70;;
22983;SDS011;11658;48.908;9.140;2024-03-08T13:10:12;15.67;;;11.93;;
22983;SDS011;11658;48.908;9.140;2024-03-08T13:12:42;14.67;;;11.80;;
22983;SDS011;11658;48.908;9.140;2024-03-08T13:15:08;18.07;;;12.23;;
22983;SDS011;11658;48.908;9.140;2024-03-08T13:17:36;17.93;;;12.47;;
22983;SDS011;11658;48.908;9.140;2024-03-08T13:20:05;14.00;;;11.70;;
22983;SDS011;11658;48.908;9.140;2024-03-08T13:22:32;16.40;;;11.53;;
22983;SDS011;11658;48.908;9.140;2024-03-08T13:24:58;14.80;;;11.47;;
22983;SDS011;11658;48.908;9.140;2024-03-08T13:27:26;17.63;;;12.20;;
22983;SDS011;11658;48.908;9.140;2024-03-08T13:29:55;16.83;;;11.33;;
22983;SDS011;11658;48.908;9.140;2024-03-08T13:32:21;15.40;;;12.27;;
22983;SDS011;11658;48.908;9.140;2024-03-08T13:34:47;16.17;;;12.47;;
22983;SDS011;11658;48.908;9.140;2024-03-08T13:37:13;15.03;;;11.57;;
22983;SDS011;11658;48.908;9.140;2024-03-08T13:39:41;30.40;;;13.30;;
22983;SDS011;11658;48.908;9.140;2024-03-08T13:42:17;19.00;;;12.30;;
22983;SDS011;11658;48.908;9.140;2024-03-08T13:44:44;27.40;;;13.40;;
22983;SDS011;11658;48.908;9.140;2024-03-08T13:47:14;18.17;;;11.27;;
22983;SDS011;11658;48.908;9.140;2024-03-08T13:49:43;14.43;;;11.10;;
22983;SDS011;11658;48.908;9.140;2024-03-08T13:52:09;15.63;;;10.97;;
22983;SDS011;11658;48.908;9.140;2024-03-08T13:54:36;15.60;;;10.83;;
22983;SDS011;11658;48.908;9.140;2024-03-08T13:57:03;15.27;;;11.27;;
22983;SDS011;11658;48.908;9.140;2024-03-08T13:59:30;16.10;;;11.30;;
22983;SDS011;11658;48.908;9.140;2024-03-08T14:01:57;15.50;;;10.47;;
22983;SDS011;11658;48.908;9.140;2024-03-08T14:04:24;14.13;;;10.77;;
22983;SDS011;11658;48.908;9.140;2024-03-08T14:06:51;14.03;;;10.87;;
22983;SDS011;11658;48.908;9.140;2024-03-08T14:09:21;15.67;;;11.23;;
22983;SDS011;11658;48.908;9.140;2024-03-08T14:11:49;15.97;;;11.07;;
22983;SDS011;11658;48.908;9.140;2024-03-08T14:14:21;13.67;;;11.43;;
22983;SDS011;11658;48.908;9.140;2024-03-08T14:16:48;14.73;;;11.37;;
22983;SDS011;11658;48.908;9.140;2024-03-08T14:19:14;14.60;;;11.20;;
22983;SDS011;11658;48.908;9.140;2024-03-08T14:21:40;14.20;;;10.87;;
22983;SDS011;11658;48.908;9.140;2024-03-08T14:24:07;14.70;;;11.57;;
22983;SDS011;11658;48.908;9.140;2024-03-08T14:26:33;14.93;;;10.93;;
22983;SDS011;11658;48.908;9.140;2024-03-08T14:28:59;22.07;;;11.83;;
22983;SDS011;11658;48.908;9.140;2024-03-08T14:31:25;15.83;;;11.10;;
22983;SDS011;11658;48.908;9.140;2024-03-08T14:33:53;13.53;;;10.70;;
22983;SDS011;11658;48.908;9.140;2024-03-08T14:36:20;14.50;;;10.83;;
22983;SDS011;11658;48.908;9.140;2024-03-08T14:38:46;14.13;;;11.27;;
22983;SDS011;11658;48.908;9.140;2024-03-08T14:41:15;14.67;;;11.10;;
22983;SDS011;11658;48.908;9.140;2024-03-08T14:43:43;12.77;;;10.23;;
22983;SDS011;11658;48.908;9.140;2024-03-08T14:46:10;16.77;;;10.93;;
22983;SDS011;11658;48.908;9.140;2024-03-08T14:48:48;15.37;;;10.30;;
22983;SDS011;11658;48.908;9.140;2024-03-08T14:51:16;13.70;;;11.03;;
22983;SDS011;11658;48.908;9.140;2024-03-08T14:53:45;12.73;;;10.60;;
22983;SDS011;11658;48.908;9.140;2024-03-08T14:56:12;13.13;;;10.60;;
22983;SDS011;11658;48.908;9.140;2024-03-08T14:58:41;15.37;;;10.70;;
22983;SDS011;11658;48.908;9.140;2024-03-08T15:01:14;14.00;;;9.60;;
22983;SDS011;11658;48.908;9.140;2024-03-08T15:03:40;14.20;;;10.27;;
22983;SDS011;11658;48.908;9.140;2024-03-08T15:06:09;16.87;;;10.87;;
22983;SDS011;11658;48.908;9.140;2024-03-08T15:08:38;15.33;;;10.20;;
22983;SDS011;11658;48.908;9.140;2024-03-08T15:11:07;15.77;;;10.60;;
22983;SDS011;11658;48.908;9.140;2024-03-08T15:13:33;14.67;;;10.07;;
22983;SDS011;11658;48.908;9.140;2024-03-08T15:16:06;14.27;;;11.07;;
22983;SDS011;11658;48.908;9.140;2024-03-08T15:18:33;13.60;;;10.60;;
22983;SDS011;11658;48.908;9.140;2024-03-08T15:21:01;13.33;;;10.83;;
22983;SDS011;11658;48.908;9.140;2024-03-08T15:23:31;14.93;;;10.87;;
22983;SDS011;11658;48.908;9.140;2024-03-08T15:25:58;14.50;;;10.50;;
22983;SDS011;11658;48.908;9.140;2024-03-08T15:28:24;15.93;;;10.60;;
22983;SDS011;11658;48.908;9.140;2024-03-08T15:30:58;14.10;;;10.63;;
22983;SDS011;11658;48.908;9.140;2024-03-08T15:33:30;13.63;;;10.67;;
22983;SDS011;11658;48.908;9.140;2024-03-08T15:35:56;12.73;;;10.23;;
22983;SDS011;11658;48.908;9.140;2024-03-08T15:38:28;12.53;;;10.27;;
22983;SDS011;11658;48.908;9.140;2024-03-08T15:40:54;18.13;;;10.57;;
22983;SDS011;11658;48.908;9.140;2024-03-08T15:43:21;14.47;;;10.30;;
22983;SDS011;11658;48.908;9.140;2024-03-08T15:45:47;14.10;;;10.50;;
22983;SDS011;11658;48.908;9.140;2024-03-08T15:48:13;12.47;;;10.20;;
22983;SDS011;11658;48.908;9.140;2024-03-08T15:50:39;17.77;;;10.87;;
22983;SDS011;11658;48.908;9.140;2024-03-08T15:53:05;14.03;;;10.10;;
22983;SDS011;11658;48.908;9.140;2024-03-08T15:55:31;13.50;;;10.03;;
22983;SDS011;11658;48.908;9.140;2024-03-08T15:57:57;13.37;;;10.30;;
22983;SDS011;11658;48.908;9.140;2024-03-08T16:00:25;12.20;;;9.97;;
22983;SDS011;11658;48.908;9.140;2024-03-08T16:03:23;13.13;;;10.10;;
22983;SDS011;11658;48.908;9.140;2024-03-08T16:05:49;16.70;;;10.30;;
22983;SDS011;11658;48.908;9.140;2024-03-08T16:08:16;11.83;;;9.40;;
22983;SDS011;11658;48.908;9.140;2024-03-08T16:13:24;12.40;;;9.70;;
22983;SDS011;11658;48.908;9.140;2024-03-08T16:15:52;13.73;;;10.83;;
22983;SDS011;11658;48.908;9.140;2024-03-08T16:18:23;13.37;;;10.07;;
22983;SDS011;11658;48.908;9.140;2024-03-08T16:20:53;12.63;;;10.00;;
22983;SDS011;11658;48.908;9.140;2024-03-08T16:23:20;13.37;;;10.13;;
22983;SDS011;11658;48.908;9.140;2024-03-08T16:25:46;13.50;;;10.07;;
22983;SDS011;11658;48.908;9.140;2024-03-08T16:28:13;12.10;;;8.90;;
22983;SDS011;11658;48.908;9.140;2024-03-08T16:30:42;12.57;;;9.60;;
22983;SDS011;11658;48.908;9.140;2024-03-08T16:33:19;10.97;;;8.97;;
22983;SDS011;11658;48.908;9.140;2024-03-08T16:35:45;13.30;;;9.23;;
22983;SDS011;11658;48.908;9.140;2024-03-08T16:38:15;13.00;;;10.03;;
22983;SDS011;11658;48.908;9.140;2024-03-08T16:40:42;13.10;;;10.40;;
22983;SDS011;11658;48.908;9.140;2024-03-08T16:43:08;13.17;;;10.00;;
22983;SDS011;11658;48.908;9.140;2024-03-08T16:45:39;11.77;;;9.57;;
22983;SDS011;11658;48.908;9.140;2024-03-08T16:48:05;12.27;;;9.40;;
22983;SDS011;11658;48.908;9.140;2024-03-08T16:50:32;12.13;;;9.40;;
22983;SDS011;11658;48.908;9.140;2024-03-08T16:52:58;13.10;;;9.23;;
22983;SDS011;11658;48.908;9.140;2024-03-08T16:55:24;13.53;;;9.70;;
22983;SDS011;11658;48.908;9.140;2024-03-08T16:57:50;13.67;;;9.63;;
22983;SDS011;11658;48.908;9.140;2024-03-08T17:00:17;11.53;;;9.40;;
22983;SDS011;11658;48.908;9.140;2024-03-08T17:02:56;11.07;;;9.47;;
22983;SDS011;11658;48.908;9.140;2024-03-08T17:05:22;12.17;;;10.50;;
22983;SDS011;11658;48.908;9.140;2024-03-08T17:07:52;12.80;;;10.20;;
22983;SDS011;11658;48.908;9.140;2024-03-08T17:10:19;13.13;;;10.23;;
22983;SDS011;11658;48.908;9.140;2024-03-08T17:12:45;14.37;;;10.00;;
22983;SDS011;11658;48.908;9.140;2024-03-08T17:15:15;13.40;;;10.30;;
22983;SDS011;11658;48.908;9.140;2024-03-08T17:17:47;12.37;;;10.17;;
22983;SDS011;11658;48.908;9.140;2024-03-08T17:20:18;13.30;;;10.43;;
22983;SDS011;11658;48.908;9.140;2024-03-08T17:22:51;14.07;;;9.83;;
22983;SDS011;11658;48.908;9.140;2024-03-08T17:25:18;11.23;;;9.10;;
22983;SDS011;11658;48.908;9.140;2024-03-08T17:27:49;11.63;;;10.43;;
22983;SDS011;11658;48.908;9.140;2024-03-08T17:30:24;12.20;;;9.80;;
22983;SDS011;11658;48.908;9.140;2024-03-08T17:35:20;12.97;;;9.97;;
22983;SDS011;11658;48.908;9.140;2024-03-08T17:37:51;13.60;;;10.23;;
22983;SDS011;11658;48.908;9.140;2024-03-08T17:40:21;14.33;;;10.23;;
22983;SDS011;11658;48.908;9.140;2024-03-08T17:42:48;16.20;;;11.43;;
22983;SDS011;11658;48.908;9.140;2024-03-08T17:45:24;11.77;;;10.27;;
22983;SDS011;11658;48.908;9.140;2024-03-08T17:47:52;14.97;;;11.03;;
22983;SDS011;11658;48.908;9.140;2024-03-08T17:50:18;15.87;;;11.23;;
22983;SDS011;11658;48.908;9.140;2024-03-08T17:52:44;15.67;;;11.70;;
22983;SDS011;11658;48.908;9.140;2024-03-08T17:55:11;13.27;;;11.43;;
22983;SDS011;11658;48.908;9.140;2024-03-08T17:57:47;16.50;;;12.63;;
22983;SDS011;11658;48.908;9.140;2024-03-08T18:00:17;17.50;;;12.87;;
22983;SDS011;11658;48.908;9.140;2024-03-08T18:02:50;14.10;;;11.10;;
22983;SDS011;11658;48.908;9.140;2024-03-08T18:05:20;13.97;;;10.07;;
22983;SDS011;11658;48.908;9.140;2024-03-08T18:07:53;14.37;;;9.67;;
22983;SDS011;11658;48.908;9.140;2024-03-08T18:10:22;11.83;;;9.43;;
22983;SDS011;11658;48.908;9.140;2024-03-08T18:12:49;11.70;;;9.03;;
22983;SDS011;11658;48.908;9.140;2024-03-08T18:15:17;11.07;;;9.00;;
22983;SDS011;11658;48.908;9.140;2024-03-08T18:17:50;11.60;;;8.60;;
22983;SDS011;11658;48.908;9.140;2024-03-08T18:20:17;12.47;;;8.70;;
22983;SDS011;11658;48.908;9.140;2024-03-08T18:22:46;10.43;;;8.03;;
22983;SDS011;11658;48.908;9.140;2024-03-08T18:25:12;10.57;;;8.33;;
22983;SDS011;11658;48.908;9.140;2024-03-08T18:27:40;10.57;;;8.53;;
22983;SDS011;11658;48.908;9.140;2024-03-08T18:30:06;12.03;;;8.97;;
22983;SDS011;11658;48.908;9.140;2024-03-08T18:32:40;10.07;;;8.27;;
22983;SDS011;11658;48.908;9.140;2024-03-08T18:35:06;10.77;;;8.97;;
22983;SDS011;11658;48.908;9.140;2024-03-08T18:37:32;10.63;;;8.63;;
22983;SDS011;11658;48.908;9.140;2024-03-08T18:39:58;11.03;;;9.03;;
22983;SDS011;11658;48.908;9.140;2024-03-08T18:42:24;11.33;;;9.43;;
22983;SDS011;11658;48.908;9.140;2024-03-08T18:44:49;9.50;;;7.87;;
22983;SDS011;11658;48.908;9.140;2024-03-08T18:47:16;11.07;;;8.87;;
22983;SDS011;11658;48.908;9.140;2024-03-08T18:49:42;10.90;;;8.60;;
22983;SDS011;11658;48.908;9.140;2024-03-08T18:52:08;10.80;;;9.07;;
22983;SDS011;11658;48.908;9.140;2024-03-08T18:54:34;9.67;;;8.57;;
22983;SDS011;11658;48.908;9.140;2024-03-08T18:56:59;11.27;;;8.47;;
22983;SDS011;11658;48.908;9.140;2024-03-08T18:59:27;11.10;;;9.03;;
22983;SDS011;11658;48.908;9.140;2024-03-08T19:01:52;12.23;;;8.80;;
22983;SDS011;11658;48.908;9.140;2024-03-08T19:04:18;11.27;;;9.23;;
22983;SDS011;11658;48.908;9.140;2024-03-08T19:06:44;11.23;;;8.83;;
22983;SDS011;11658;48.908;9.140;2024-03-08T19:09:09;12.63;;;9.17;;
22983;SDS011;11658;48.908;9.140;2024-03-08T19:11:39;9.50;;;8.03;;
22983;SDS011;11658;48.908;9.140;2024-03-08T19:14:05;9.17;;;8.17;;
22983;SDS011;11658;48.908;9.140;2024-03-08T19:16:31;10.33;;;8.40;;
22983;SDS011;11658;48.908;9.140;2024-03-08T19:18:57;10.70;;;8.60;;
22983;SDS011;11658;48.908;9.140;2024-03-08T19:21:22;9.93;;;8.43;;
22983;SDS011;11658;48.908;9.140;2024-03-08T19:23:49;10.60;;;8.37;;
22983;SDS011;11658;48.908;9.140;2024-03-08T19:26:14;11.37;;;8.63;;
22983;SDS011;11658;48.908;9.140;2024-03-08T19:28:47;9.63;;;7.90;;
22983;SDS011;11658;48.908;9.140;2024-03-08T19:31:12;10.87;;;8.23;;
22983;SDS011;11658;48.908;9.140;2024-03-08T19:33:39;8.90;;;7.53;;
22983;SDS011;11658;48.908;9.140;2024-03-08T19:36:05;10.40;;;8.07;;